createdAt,value
2018-03-24T00:00:54.381Z,11.93
2018-03-24T00:06:45.024Z,9.09
2018-03-24T00:12:35.790Z,8.95
2018-03-24T00:18:26.546Z,12.2
2018-03-24T00:24:17.142Z,9.93
2018-03-24T00:30:07.850Z,10.15
2018-03-24T00:35:58.532Z,9.53
2018-03-24T00:41:49.221Z,8.32
2018-03-24T00:47:39.917Z,8.29
2018-03-24T00:53:30.656Z,7.04
2018-03-24T00:59:21.302Z,7.5
2018-03-24T01:05:12.005Z,9.38
2018-03-24T01:11:02.685Z,11.18
2018-03-24T01:16:53.390Z,7.94
2018-03-24T01:22:44.120Z,9.13
2018-03-24T01:28:34.750Z,9.6
2018-03-24T01:34:25.465Z,10.67
2018-03-24T01:40:16.187Z,8.46
2018-03-24T01:46:06.874Z,13.37
2018-03-24T01:51:57.548Z,38.81
2018-03-24T01:57:48.225Z,10.24
2018-03-24T02:03:38.913Z,8.46
2018-03-24T02:09:29.631Z,8.06
2018-03-24T02:15:20.339Z,7.71
2018-03-24T02:21:10.996Z,7.64
2018-03-24T02:27:01.675Z,7.61
2018-03-24T02:32:52.396Z,7.15
2018-03-24T02:38:43.142Z,8.99
2018-03-24T02:44:33.748Z,8.11
2018-03-24T02:50:24.479Z,8.26
2018-03-24T02:56:15.191Z,9.45
2018-03-24T03:02:05.830Z,10.27
2018-03-24T03:07:56.597Z,10.76
2018-03-24T03:13:47.223Z,7.72
2018-03-24T03:19:37.964Z,6.71
2018-03-24T03:25:28.673Z,6.75
2018-03-24T03:31:19.289Z,6.53
2018-03-24T03:37:09.978Z,7.9
2018-03-24T03:43:00.801Z,5.97
2018-03-24T03:48:51.394Z,9.05
2018-03-24T03:54:42.066Z,7.55
2018-03-24T04:00:32.793Z,8.56
2018-03-24T04:06:23.442Z,7.9
2018-03-24T04:12:14.149Z,7.54
2018-03-24T04:18:04.937Z,3.96
2018-03-24T04:23:55.514Z,5.91
2018-03-24T04:29:46.201Z,6.68
2018-03-24T04:35:36.930Z,4.96
2018-03-24T04:41:27.632Z,6.62
2018-03-24T04:47:18.292Z,5.5
2018-03-24T04:53:08.955Z,6.9
2018-03-24T04:58:59.670Z,5.64
2018-03-24T05:04:50.376Z,6.74
2018-03-24T05:10:41.071Z,5.69
2018-03-24T05:16:31.751Z,4.62
2018-03-24T05:22:22.510Z,6.29
2018-03-24T05:28:13.270Z,6.42
2018-03-24T05:34:03.837Z,5.16
2018-03-24T05:39:54.501Z,5.4
2018-03-24T05:45:45.247Z,3.85
2018-03-24T05:51:35.898Z,12.86
2018-03-24T05:57:26.664Z,14.81
2018-03-24T06:03:17.276Z,17.68
2018-03-24T06:09:07.966Z,18.19
2018-03-24T06:14:58.727Z,18.73
2018-03-24T06:20:49.356Z,20.93
2018-03-24T06:26:40.063Z,20.73
2018-03-24T06:32:30.721Z,18.09
2018-03-24T06:38:21.454Z,24.98
2018-03-24T06:44:12.107Z,16.31
2018-03-24T06:50:02.852Z,15.88
2018-03-24T06:55:53.577Z,15.73
2018-03-24T07:01:44.187Z,17.4
2018-03-24T07:07:34.924Z,19.56
2018-03-24T07:13:25.569Z,21.62
2018-03-24T07:19:16.282Z,20.04
2018-03-24T07:25:06.972Z,20.36
2018-03-24T07:30:57.643Z,22.63
2018-03-24T07:36:48.339Z,18.77
2018-03-24T07:42:39.020Z,20.01
2018-03-24T07:48:29.753Z,24.63
2018-03-24T07:54:20.430Z,22.3
2018-03-24T08:00:11.136Z,22.31
2018-03-24T08:06:01.796Z,22.71
2018-03-24T08:11:52.516Z,22.13
2018-03-24T08:17:43.220Z,23.32
2018-03-24T08:23:33.908Z,23.81
2018-03-24T08:29:24.591Z,22.19
2018-03-24T08:35:15.343Z,25.96
2018-03-24T08:41:05.976Z,24.27
2018-03-24T08:46:56.671Z,25.73
2018-03-24T08:52:47.411Z,22.61
2018-03-24T08:58:38.066Z,21.64
2018-03-24T09:04:28.838Z,19
2018-03-24T09:10:19.479Z,19.62
2018-03-24T09:16:10.181Z,19.2
2018-03-24T09:22:00.928Z,21.87
2018-03-24T09:27:51.555Z,18.6
2018-03-24T09:33:42.265Z,16.96
2018-03-24T09:39:33.008Z,17.28
2018-03-24T09:45:23.705Z,13.69
2018-03-24T09:51:14.364Z,17.09
2018-03-24T09:57:05.065Z,11.95
2018-03-24T10:02:55.797Z,17.67
2018-03-24T10:08:46.499Z,10.6
2018-03-24T10:14:37.172Z,17.06
2018-03-24T10:20:27.961Z,10.13
2018-03-24T10:26:18.579Z,9.23
2018-03-24T10:32:09.312Z,7.56
2018-03-24T10:38:00.016Z,11.4
2018-03-24T10:43:50.741Z,7.83
2018-03-24T10:49:41.434Z,7.32
2018-03-24T10:55:32.144Z,8.29
2018-03-24T11:01:22.880Z,8.21
2018-03-24T11:07:13.563Z,13.98
2018-03-24T11:13:04.285Z,5.02
2018-03-24T11:18:54.989Z,6.42
2018-03-24T11:24:45.699Z,5.47
2018-03-24T11:30:36.401Z,6.44
2018-03-24T11:36:27.112Z,8.59
2018-03-24T11:42:17.856Z,4.86
2018-03-24T11:48:08.603Z,5.02
2018-03-24T11:53:59.308Z,5.06
2018-03-24T11:59:49.949Z,5.7
2018-03-24T12:05:40.712Z,5.11
2018-03-24T12:11:31.372Z,5.98
2018-03-24T12:17:22.121Z,5.57
2018-03-24T12:23:12.907Z,6.01
2018-03-24T12:29:03.591Z,4.53
2018-03-24T12:34:54.335Z,4
2018-03-24T12:40:45.048Z,4.9
2018-03-24T12:46:35.785Z,9.69
2018-03-24T12:52:26.490Z,4.9
2018-03-24T12:58:17.256Z,7.04
2018-03-24T13:04:07.906Z,4.39
2018-03-24T13:09:58.584Z,2.86
2018-03-24T13:15:49.341Z,4.28
2018-03-24T13:21:40.044Z,5.65
2018-03-24T13:27:30.749Z,5.97
2018-03-24T13:33:21.616Z,3.35
2018-03-24T13:39:12.240Z,4.19
2018-03-24T13:45:02.950Z,6.53
2018-03-24T13:50:53.730Z,4.31
2018-03-24T13:56:44.449Z,6.04
2018-03-24T14:02:35.147Z,5.15
2018-03-24T14:08:25.877Z,4.36
2018-03-24T14:14:16.606Z,4.68
2018-03-24T14:20:07.331Z,4.11
2018-03-24T14:25:58.109Z,3.99
2018-03-24T14:31:48.759Z,4.41
2018-03-24T14:37:39.463Z,6.37
2018-03-24T14:43:30.211Z,4.35
2018-03-24T14:49:20.925Z,5.72
2018-03-24T14:55:11.627Z,7.67
2018-03-24T15:01:02.408Z,4.66
2018-03-24T15:06:53.116Z,7.19
2018-03-24T15:12:43.851Z,4.28
2018-03-24T15:18:34.652Z,4.95
2018-03-24T15:24:25.273Z,4.86
2018-03-24T15:30:16.026Z,5.29
2018-03-24T15:36:06.773Z,5.97
2018-03-24T15:41:57.560Z,7
2018-03-24T15:47:48.269Z,7.22
2018-03-24T15:53:39.000Z,7.74
2018-03-24T15:59:29.704Z,6.89
2018-03-24T16:05:21.093Z,8.34
2018-03-24T16:11:11.170Z,8.29
2018-03-24T16:17:01.906Z,8.21
2018-03-24T16:22:52.598Z,7.3
2018-03-24T16:28:43.366Z,6.07
2018-03-24T16:34:34.088Z,8.32
2018-03-24T16:40:24.874Z,6.78
2018-03-24T16:46:15.517Z,10.13
2018-03-24T16:52:06.225Z,8.84
2018-03-24T16:57:56.951Z,10.08
2018-03-24T17:03:47.707Z,12.98
2018-03-24T17:09:38.394Z,12.75
2018-03-24T17:15:29.140Z,8.92
2018-03-24T17:21:19.837Z,12.47
2018-03-24T17:27:10.527Z,18.34
2018-03-24T17:33:01.340Z,16.56
2018-03-24T17:38:52.049Z,12.43
2018-03-24T17:44:42.712Z,11.22
2018-03-24T17:50:33.396Z,7.92
2018-03-24T17:56:24.098Z,9.76
2018-03-24T18:02:14.829Z,10.47
2018-03-24T18:08:05.578Z,14.57
2018-03-24T18:13:56.253Z,16.42
2018-03-24T18:19:46.904Z,10.49
2018-03-24T18:25:37.682Z,15.8
2018-03-24T18:31:28.382Z,14.36
2018-03-24T18:37:19.104Z,12.02
2018-03-24T18:43:09.768Z,9.9
2018-03-24T18:49:00.490Z,13.36
2018-03-24T18:54:51.280Z,12.62
2018-03-24T19:00:41.971Z,10.56
2018-03-24T19:06:32.645Z,17.59
2018-03-24T19:12:23.302Z,11.21
2018-03-24T19:18:13.988Z,13.39
2018-03-24T19:24:04.705Z,14.39
2018-03-24T19:29:55.958Z,16.25
2018-03-24T19:35:46.191Z,13.29
2018-03-24T19:41:36.838Z,12.11
2018-03-24T19:47:27.692Z,9.46
2018-03-24T19:53:18.283Z,12.05
2018-03-24T19:59:08.974Z,27.89
2018-03-24T20:04:59.666Z,13.24
2018-03-24T20:10:50.398Z,16.15
2018-03-24T20:16:41.080Z,13.94
2018-03-24T20:22:31.792Z,58.31
2018-03-24T20:28:22.494Z,63.72
2018-03-24T20:34:13.195Z,47.69
2018-03-24T20:40:03.896Z,34.64
2018-03-24T20:45:54.595Z,63.76
2018-03-24T20:51:45.331Z,26.46
2018-03-24T20:57:35.973Z,22.64
2018-03-24T21:03:26.676Z,21.63
2018-03-24T21:09:17.467Z,51.7
2018-03-24T21:15:08.099Z,30.89
2018-03-24T21:20:58.774Z,17.64
2018-03-24T21:26:49.459Z,20.4
2018-03-24T21:32:40.289Z,23.04
2018-03-24T21:38:30.868Z,25.83
2018-03-24T21:44:21.586Z,47.11
2018-03-24T21:50:12.319Z,37.63
2018-03-24T21:56:02.976Z,26.23
2018-03-24T22:01:53.667Z,20.73
2018-03-24T22:07:44.348Z,24.55
2018-03-24T22:13:35.087Z,24.94
2018-03-24T22:19:25.808Z,24.69
2018-03-24T22:25:16.507Z,23.14
2018-03-24T22:31:07.188Z,21
2018-03-24T22:36:57.895Z,21.19
2018-03-24T22:42:48.552Z,19.89
2018-03-24T22:48:39.247Z,23.67
2018-03-24T22:54:29.930Z,20.6
2018-03-24T23:00:20.692Z,19.39
2018-03-24T23:06:11.318Z,18.8
2018-03-24T23:12:02.125Z,19.28
2018-03-24T23:17:52.982Z,21.35
2018-03-24T23:23:43.412Z,14.61
2018-03-24T23:29:34.161Z,17.14
2018-03-24T23:35:24.805Z,21.31
2018-03-24T23:41:15.467Z,15.32
2018-03-24T23:47:06.214Z,13.53
2018-03-24T23:52:56.860Z,13.54
2018-03-24T23:58:47.581Z,13.26
